Time;durP1;ratioP1;P1;durP2;ratioP2;P2;SDS_P1;SDS_P2;PMS_P1;PMS_P2;Temp;Humidity;BMP_temperature;BMP_pressure;BME280_temperature;BME280_humidity;BME280_pressure;Samples;Min_cycle;Max_cycle;Signal;HPM_P1;HPM_P2
2022/12/18 00:01:36;;;;;;;1999.90;999.90;;;1.30;99.90;;;;;;5052138;28;20039;-78
2022/12/18 00:04:04;;;;;;;1999.90;999.90;;;1.40;99.90;;;;;;5050166;28;20526;-78
2022/12/18 00:06:30;;;;;;;1999.90;999.90;;;1.40;99.90;;;;;;5052184;28;20041;-78
2022/12/18 00:08:57;;;;;;;1999.90;999.90;;;1.40;99.90;;;;;;5052264;28;20079;-78
2022/12/18 00:11:25;;;;;;;1999.90;999.90;;;1.50;99.90;;;;;;5051967;28;20037;-78
2022/12/18 00:13:53;;;;;;;1999.90;999.90;;;1.50;99.90;;;;;;5051695;28;20099;-78
2022/12/18 00:16:20;;;;;;;1999.90;999.90;;;1.50;99.90;;;;;;5036119;28;20076;-78
2022/12/18 00:18:47;;;;;;;1999.90;999.90;;;1.50;99.90;;;;;;5032152;28;20134;-78
2022/12/18 00:21:14;;;;;;;1999.90;999.90;;;1.60;99.90;;;;;;5044728;28;20119;-78
2022/12/18 00:23:42;;;;;;;1999.90;999.90;;;1.60;99.90;;;;;;5052604;28;20029;-78
2022/12/18 00:26:19;;;;;;;1999.90;999.90;;;1.60;99.90;;;;;;5055206;28;20037;-78
2022/12/18 00:28:45;;;;;;;1999.90;999.90;;;1.60;99.90;;;;;;5054380;28;20029;-78
2022/12/18 00:31:16;;;;;;;1999.90;999.90;;;1.60;99.90;;;;;;5055830;28;20025;-78
2022/12/18 00:33:43;;;;;;;1999.90;999.90;;;1.60;99.90;;;;;;5055490;28;20373;-78
2022/12/18 00:36:10;;;;;;;1999.90;999.90;;;1.60;99.90;;;;;;5054390;28;20395;-79
2022/12/18 00:38:36;;;;;;;1999.90;999.90;;;1.70;99.90;;;;;;5055579;28;20484;-78
2022/12/18 00:41:02;;;;;;;1999.90;999.90;;;1.70;99.90;;;;;;5055451;28;20027;-78
2022/12/18 00:43:27;;;;;;;1999.90;999.90;;;1.60;99.90;;;;;;5055576;28;20029;-78
2022/12/18 00:45:53;;;;;;;1999.90;999.90;;;1.60;99.90;;;;;;5055587;28;20079;-78
2022/12/18 00:48:19;;;;;;;1999.90;999.90;;;1.60;99.90;;;;;;5054873;28;20104;-78
2022/12/18 00:50:44;;;;;;;1999.90;999.90;;;1.60;99.90;;;;;;5054947;28;20029;-78
2022/12/18 00:53:10;;;;;;;1999.90;999.90;;;1.60;99.90;;;;;;5054412;28;20476;-79
2022/12/18 00:55:39;;;;;;;1999.90;999.90;;;1.60;99.90;;;;;;5055021;28;20032;-79
2022/12/18 00:58:04;;;;;;;1999.90;999.90;;;1.70;99.90;;;;;;5054055;28;20029;-78
2022/12/18 01:00:30;;;;;;;1999.90;999.90;;;1.60;99.90;;;;;;5054067;28;20040;-76
2022/12/18 01:02:55;;;;;;;1999.90;999.90;;;1.50;99.90;;;;;;5055426;28;20031;-78
2022/12/18 01:05:21;;;;;;;1999.90;999.90;;;1.50;99.90;;;;;;5055282;28;20044;-78
2022/12/18 01:07:47;;;;;;;1999.90;999.90;;;1.40;99.90;;;;;;5054999;28;20377;-78
2022/12/18 01:10:13;;;;;;;1999.90;999.90;;;1.30;99.90;;;;;;5055123;28;20025;-78
2022/12/18 01:12:39;;;;;;;1999.90;999.90;;;1.30;99.90;;;;;;5054597;28;20092;-78
2022/12/18 01:15:06;;;;;;;1999.90;999.90;;;1.20;99.90;;;;;;5053805;28;20096;-79
2022/12/18 01:17:32;;;;;;;1999.90;999.90;;;1.20;99.90;;;;;;5054312;28;20111;-76
2022/12/18 01:19:57;;;;;;;1999.90;999.90;;;1.10;99.90;;;;;;5054141;28;20492;-78
2022/12/18 01:22:23;;;;;;;1999.90;999.90;;;1.00;99.90;;;;;;5054834;28;20037;-75
2022/12/18 01:24:49;;;;;;;1999.90;999.90;;;1.00;99.90;;;;;;5054477;28;20108;-75
2022/12/18 01:27:14;;;;;;;1999.90;999.90;;;1.00;99.90;;;;;;5054682;28;20406;-79
2022/12/18 01:29:40;;;;;;;1999.90;999.90;;;1.00;99.90;;;;;;5054430;28;20085;-76
2022/12/18 01:32:06;;;;;;;1999.90;999.90;;;1.00;99.90;;;;;;5053082;28;20066;-75
2022/12/18 01:34:32;;;;;;;1999.90;999.90;;;1.00;99.90;;;;;;5052341;28;20248;-75
2022/12/18 01:36:57;;;;;;;1999.90;999.90;;;1.00;99.90;;;;;;5054554;28;20025;-75
2022/12/18 01:39:23;;;;;;;1999.90;999.90;;;1.10;99.90;;;;;;5053338;28;20037;-76
2022/12/18 01:42:04;;;;;;;1999.90;999.90;;;1.10;99.90;;;;;;5052211;28;20021;-75
2022/12/18 01:44:57;;;;;;;1999.90;999.90;;;1.10;99.90;;;;;;5054113;28;20442;-75
2022/12/18 01:47:44;;;;;;;1999.90;999.90;;;1.10;99.90;;;;;;5054394;28;20373;-75
2022/12/18 01:50:25;;;;;;;1999.90;999.90;;;1.10;99.90;;;;;;5052530;28;20373;-75
2022/12/18 01:52:59;;;;;;;1999.90;999.90;;;1.10;99.90;;;;;;5048357;28;20473;-75
2022/12/18 01:55:29;;;;;;;1999.90;999.90;;;1.10;99.90;;;;;;5034218;28;20009;-75
2022/12/18 01:57:58;;;;;;;1999.90;999.90;;;1.10;99.90;;;;;;5034087;28;20389;-75
2022/12/18 02:00:26;;;;;;;1999.90;999.90;;;1.10;99.90;;;;;;5033989;28;20037;-76
2022/12/18 02:02:51;;;;;;;1999.90;999.90;;;1.00;99.90;;;;;;5033879;28;20040;-75
2022/12/18 02:05:37;;;;;;;1999.90;999.90;;;1.00;99.90;;;;;;5065984;28;20037;-75
2022/12/18 02:08:26;;;;;;;1999.90;999.90;;;0.90;99.90;;;;;;5032112;28;20072;-79
2022/12/18 02:11:05;;;;;;;1999.90;999.90;;;0.90;99.90;;;;;;5033822;28;20496;-75
2022/12/18 02:14:08;;;;;;;1999.90;999.90;;;0.90;99.90;;;;;;5033666;28;20028;-79
2022/12/18 02:17:03;;;;;;;1999.90;999.90;;;0.80;99.90;;;;;;5015779;28;20125;-75
2022/12/18 02:20:07;;;;;;;1999.90;999.90;;;0.90;99.90;;;;;;5033709;28;20114;-80
2022/12/18 02:23:00;;;;;;;1999.90;999.90;;;0.90;99.90;;;;;;5033497;28;20028;-76
2022/12/18 02:25:35;;;;;;;1999.90;999.90;;;0.90;99.90;;;;;;5033490;28;20112;-75
2022/12/18 02:28:03;;;;;;;1999.90;999.90;;;0.90;99.90;;;;;;5033360;28;20450;-75
2022/12/18 02:30:33;;;;;;;1999.90;999.90;;;0.80;99.90;;;;;;5033226;28;20539;-76
2022/12/18 02:33:00;;;;;;;1999.90;999.90;;;0.80;99.90;;;;;;5035623;28;20427;-79
2022/12/18 02:35:30;;;;;;;1999.90;999.90;;;0.70;99.90;;;;;;5053455;28;20013;-76
2022/12/18 02:37:57;;;;;;;1999.90;999.90;;;0.70;99.90;;;;;;5053107;28;20036;-75
2022/12/18 02:40:25;;;;;;;1999.90;999.90;;;0.70;99.90;;;;;;5053187;28;20021;-75
2022/12/18 02:42:51;;;;;;;1999.90;999.90;;;0.70;99.90;;;;;;5052572;28;20480;-75
2022/12/18 02:45:17;;;;;;;1999.90;999.90;;;0.70;99.90;;;;;;5053291;28;20096;-75
2022/12/18 02:47:47;;;;;;;1999.90;999.90;;;0.60;99.90;;;;;;5052526;28;20033;-75
2022/12/18 02:50:25;;;;;;;1999.90;999.90;;;0.50;99.90;;;;;;5052060;28;20049;-75
2022/12/18 02:53:30;;;;;;;1999.90;999.90;;;0.50;99.90;;;;;;5047318;28;20022;-79
2022/12/18 02:56:20;;;;;;;1999.90;999.90;;;0.50;99.90;;;;;;5032574;28;20473;-75
2022/12/18 02:59:11;;;;;;;1999.90;999.90;;;0.50;99.90;;;;;;5032887;28;20393;-75
2022/12/18 03:02:10;;;;;;;1999.90;999.90;;;0.40;99.90;;;;;;5032913;28;20108;-75
2022/12/18 03:04:48;;;;;;;1999.90;999.90;;;0.40;99.90;;;;;;5032562;28;20056;-75
2022/12/18 03:07:21;;;;;;;1999.90;999.90;;;0.40;99.90;;;;;;5033015;28;20488;-75
2022/12/18 03:09:50;;;;;;;1999.90;999.90;;;0.40;99.90;;;;;;5032724;28;20057;-75
2022/12/18 03:12:27;;;;;;;1999.90;999.90;;;0.40;99.90;;;;;;5032112;28;20075;-76
2022/12/18 03:14:59;;;;;;;1999.90;999.90;;;0.50;99.90;;;;;;5042103;28;20016;-76
2022/12/18 03:17:27;;;;;;;1999.90;999.90;;;0.50;99.90;;;;;;5052764;28;20044;-75
2022/12/18 03:19:57;;;;;;;1999.90;999.90;;;0.50;99.90;;;;;;5052187;28;20384;-75
2022/12/18 03:22:27;;;;;;;1999.90;999.90;;;0.40;99.90;;;;;;5052481;28;20025;-75
2022/12/18 03:24:55;;;;;;;1999.90;999.90;;;0.50;99.90;;;;;;5052154;28;20442;-76
2022/12/18 03:27:25;;;;;;;1999.90;999.90;;;0.40;99.90;;;;;;5051777;28;20028;-79
2022/12/18 03:30:17;;;;;;;1999.90;999.90;;;0.40;99.90;;;;;;5052304;28;20009;-76
2022/12/18 03:32:46;;;;;;;1999.90;999.90;;;0.40;99.90;;;;;;5050800;28;20412;-76
2022/12/18 03:35:14;;;;;;;1999.90;999.90;;;0.40;99.90;;;;;;5052215;28;20025;-75
2022/12/18 03:37:40;;;;;;;1999.90;999.90;;;0.40;99.90;;;;;;5052321;28;20025;-75
2022/12/18 03:40:06;;;;;;;1999.90;999.90;;;0.40;99.90;;;;;;5052141;28;20036;-79
2022/12/18 03:42:51;;;;;;;1999.90;999.90;;;0.40;99.90;;;;;;5050358;28;20515;-76
2022/12/18 03:45:22;;;;;;;1999.90;999.90;;;0.40;99.90;;;;;;5052315;28;20021;-75
2022/12/18 03:48:14;;;;;;;1999.90;999.90;;;0.40;99.90;;;;;;5050680;28;20025;-75
2022/12/18 03:50:49;;;;;;;1999.90;999.90;;;0.40;99.90;;;;;;5051393;28;20020;-76
2022/12/18 03:53:32;;;;;;;1999.90;999.90;;;0.50;99.90;;;;;;5030994;28;20064;-76
2022/12/18 03:56:00;;;;;;;1999.90;999.90;;;0.50;99.90;;;;;;5031774;28;20101;-75
2022/12/18 03:58:28;;;;;;;1999.90;999.90;;;0.50;99.90;;;;;;5032789;28;20033;-75
2022/12/18 04:00:59;;;;;;;1999.90;999.90;;;0.50;99.90;;;;;;5036404;28;20030;-75
2022/12/18 04:03:27;;;;;;;1999.90;999.90;;;0.50;99.90;;;;;;5036321;28;20049;-75
2022/12/18 04:05:55;;;;;;;1999.90;999.90;;;0.50;99.90;;;;;;5036194;28;20026;-75
2022/12/18 04:08:21;;;;;;;1999.90;999.90;;;0.50;99.90;;;;;;5036078;28;20029;-75
2022/12/18 04:10:47;;;;;;;1999.90;999.90;;;0.60;99.90;;;;;;5035935;28;20029;-80
2022/12/18 04:13:27;;;;;;;1999.90;999.90;;;0.60;99.90;;;;;;5036032;28;20033;-75
2022/12/18 04:15:53;;;;;;;1999.90;999.90;;;0.50;99.90;;;;;;5052732;28;20067;-75
2022/12/18 04:18:19;;;;;;;1999.90;999.90;;;0.60;99.90;;;;;;5055803;28;20033;-75
2022/12/18 04:20:45;;;;;;;1999.90;999.90;;;0.60;99.90;;;;;;5055604;28;20025;-75
2022/12/18 04:23:10;;;;;;;1999.90;999.90;;;0.60;99.90;;;;;;5055771;28;20476;-75
2022/12/18 04:25:36;;;;;;;1999.90;999.90;;;0.60;99.90;;;;;;5055088;28;20029;-75
2022/12/18 04:28:02;;;;;;;1999.90;999.90;;;0.60;99.90;;;;;;5055629;28;20090;-79
2022/12/18 04:30:27;;;;;;;1999.90;999.90;;;0.60;99.90;;;;;;5055599;28;20025;-76
2022/12/18 04:32:53;;;;;;;1999.90;999.90;;;0.60;99.90;;;;;;5055742;28;20106;-75
2022/12/18 04:35:18;;;;;;;1999.90;999.90;;;0.60;99.90;;;;;;5055651;28;20028;-79
2022/12/18 04:37:44;;;;;;;1999.90;999.90;;;0.70;99.90;;;;;;5055505;28;20029;-76
2022/12/18 04:40:10;;;;;;;1999.90;999.90;;;0.70;99.90;;;;;;5055385;28;20029;-75
2022/12/18 04:42:36;;;;;;;1999.90;999.90;;;0.80;99.90;;;;;;5054869;28;20080;-75
2022/12/18 04:45:02;;;;;;;1999.90;999.90;;;0.80;99.90;;;;;;5055801;28;20029;-75
2022/12/18 04:47:28;;;;;;;1999.90;999.90;;;0.90;99.90;;;;;;5055503;28;20455;-76
2022/12/18 04:49:53;;;;;;;1999.90;999.90;;;1.00;99.90;;;;;;5055096;28;20063;-75
2022/12/18 04:52:19;;;;;;;1999.90;999.90;;;1.00;99.90;;;;;;5054330;28;20021;-80
2022/12/18 04:54:44;;;;;;;1999.90;999.90;;;1.10;99.90;;;;;;5055183;28;20549;-76
2022/12/18 04:57:10;;;;;;;1999.90;999.90;;;1.20;99.90;;;;;;5055083;28;20476;-75
2022/12/18 04:59:36;;;;;;;1999.90;999.90;;;1.10;99.90;;;;;;5055103;28;20029;-75
2022/12/18 05:02:01;;;;;;;1999.90;999.90;;;1.20;99.90;;;;;;5055087;28;20412;-75
2022/12/18 05:04:27;;;;;;;1999.90;999.90;;;1.20;99.90;;;;;;5054291;28;20420;-75
2022/12/18 05:06:52;;;;;;;1999.90;999.90;;;1.20;99.90;;;;;;5054981;28;20116;-75
2022/12/18 05:09:18;;;;;;;1999.90;999.90;;;1.10;99.90;;;;;;5054642;28;20104;-80
2022/12/18 05:11:44;;;;;;;1999.90;999.90;;;1.10;99.90;;;;;;5054675;28;20033;-75
2022/12/18 05:14:09;;;;;;;1999.90;999.90;;;1.10;99.90;;;;;;5054383;28;20024;-75
2022/12/18 05:16:35;;;;;;;1999.90;999.90;;;1.10;99.90;;;;;;5054831;28;20029;-76
2022/12/18 05:19:00;;;;;;;1999.90;999.90;;;1.10;99.90;;;;;;5053643;28;20396;-75
2022/12/18 05:21:26;;;;;;;1999.90;999.90;;;1.10;99.90;;;;;;5054606;28;20060;-75
2022/12/18 05:23:52;;;;;;;1999.90;999.90;;;1.10;99.90;;;;;;5054264;28;20027;-80
2022/12/18 05:26:18;;;;;;;1999.90;999.90;;;1.10;99.90;;;;;;5054217;28;20491;-76
2022/12/18 05:28:44;;;;;;;1999.90;999.90;;;1.00;99.90;;;;;;5054764;28;20388;-75
2022/12/18 05:31:10;;;;;;;1999.90;999.90;;;1.00;99.90;;;;;;5036993;28;20026;-76
2022/12/18 05:33:36;;;;;;;1999.90;999.90;;;1.00;99.90;;;;;;5037480;28;20480;-80
2022/12/18 05:36:05;;;;;;;1999.90;999.90;;;1.00;99.90;;;;;;5053896;28;20025;-77
2022/12/18 05:38:31;;;;;;;1999.90;999.90;;;1.00;99.90;;;;;;5052584;28;20504;-79
2022/12/18 05:40:57;;;;;;;1999.90;999.90;;;1.00;99.90;;;;;;5054079;28;20091;-80
2022/12/18 05:43:24;;;;;;;1999.90;999.90;;;1.00;99.90;;;;;;5054448;28;20033;-80
2022/12/18 05:45:50;;;;;;;1999.90;999.90;;;1.00;99.90;;;;;;5052949;28;20029;-80
2022/12/18 05:48:16;;;;;;;1999.90;999.90;;;0.90;99.90;;;;;;5054134;28;20053;-80
2022/12/18 05:50:45;;;;;;;1999.90;999.90;;;0.90;99.90;;;;;;5054190;28;20053;-80
2022/12/18 05:53:11;;;;;;;1999.90;999.90;;;1.00;99.90;;;;;;5053565;28;20051;-80
2022/12/18 05:55:39;;;;;;;1999.90;999.90;;;1.00;99.90;;;;;;5053729;28;20543;-80
2022/12/18 05:58:07;;;;;;;1999.90;999.90;;;1.00;99.90;;;;;;5052821;28;20036;-80
2022/12/18 06:00:35;;;;;;;1999.90;999.90;;;1.10;99.90;;;;;;5053869;28;20041;-80
2022/12/18 06:03:01;;;;;;;1999.90;999.90;;;1.10;99.90;;;;;;5054102;28;20037;-80
2022/12/18 06:05:27;;;;;;;1999.90;999.90;;;1.10;99.90;;;;;;5053934;28;20377;-80
2022/12/18 06:07:53;;;;;;;1999.90;999.90;;;1.00;99.90;;;;;;5053744;28;20564;-80
2022/12/18 06:10:19;;;;;;;1999.90;999.90;;;1.00;99.90;;;;;;5052591;28;20021;-80
2022/12/18 06:12:44;;;;;;;1999.90;999.90;;;0.90;99.90;;;;;;5053384;28;20400;-80
2022/12/18 06:15:10;;;;;;;1999.90;999.90;;;0.90;99.90;;;;;;5053688;28;20053;-76
2022/12/18 06:17:36;;;;;;;1999.90;999.90;;;0.80;99.90;;;;;;5053715;28;20111;-79
2022/12/18 06:20:03;;;;;;;1999.90;999.90;;;0.90;99.90;;;;;;5053200;28;20495;-79
2022/12/18 06:22:31;;;;;;;1999.90;999.90;;;0.90;99.90;;;;;;5052654;28;20033;-80
2022/12/18 06:24:57;;;;;;;1999.90;999.90;;;0.90;99.90;;;;;;5053165;28;20091;-79
2022/12/18 06:27:22;;;;;;;1999.90;999.90;;;0.90;99.90;;;;;;5053460;28;20508;-80
2022/12/18 06:29:48;;;;;;;1999.90;999.90;;;0.90;99.90;;;;;;5053363;28;20035;-80
2022/12/18 06:32:13;;;;;;;1999.90;999.90;;;1.00;99.90;;;;;;5052126;28;20025;-80
2022/12/18 06:34:39;;;;;;;1999.90;999.90;;;1.10;99.90;;;;;;5052950;28;20025;-80
2022/12/18 06:37:05;;;;;;;1999.90;999.90;;;1.20;99.90;;;;;;5053212;28;20025;-79
2022/12/18 06:39:30;;;;;;;1999.90;999.90;;;1.20;99.90;;;;;;5053468;28;20096;-80
2022/12/18 06:41:56;;;;;;;1999.90;999.90;;;1.20;99.90;;;;;;5052811;28;20025;-80
2022/12/18 06:44:22;;;;;;;1999.90;999.90;;;1.30;99.90;;;;;;5052908;28;20031;-80
2022/12/18 06:46:47;;;;;;;1999.90;999.90;;;1.30;99.90;;;;;;5053206;28;20029;-80
2022/12/18 06:49:13;;;;;;;1999.90;999.90;;;1.30;99.90;;;;;;5052973;28;20028;-80
2022/12/18 06:51:39;;;;;;;1999.90;999.90;;;1.30;99.90;;;;;;5052375;28;20033;-76
2022/12/18 06:54:04;;;;;;;1999.90;999.90;;;1.30;99.90;;;;;;5047864;28;20075;-80
2022/12/18 06:56:30;;;;;;;1999.90;999.90;;;1.30;99.90;;;;;;5032788;28;20036;-80
2022/12/18 06:58:56;;;;;;;1999.90;999.90;;;1.30;99.90;;;;;;5033073;28;20052;-76
2022/12/18 07:01:22;;;;;;;1999.90;999.90;;;1.20;99.90;;;;;;5033269;28;20021;-80
2022/12/18 07:03:53;;;;;;;1999.90;999.90;;;1.20;99.90;;;;;;5032631;28;20041;-80
2022/12/18 07:06:22;;;;;;;1999.90;999.90;;;1.20;99.90;;;;;;5033116;28;20045;-76
2022/12/18 07:08:49;;;;;;;1999.90;999.90;;;1.30;99.90;;;;;;5032674;28;20018;-80
2022/12/18 07:11:15;;;;;;;1999.90;999.90;;;1.30;99.90;;;;;;5032921;28;20092;-80
2022/12/18 07:13:43;;;;;;;1999.90;999.90;;;1.30;99.90;;;;;;5032337;28;20053;-80
2022/12/18 07:16:11;;;;;;;1999.90;999.90;;;1.30;99.90;;;;;;5063459;28;20079;-80
2022/12/18 07:18:37;;;;;;;1999.90;999.90;;;1.30;99.90;;;;;;5070196;28;20052;-80
2022/12/18 07:21:04;;;;;;;1999.90;999.90;;;1.30;99.90;;;;;;5052341;28;20033;-80
2022/12/18 07:23:31;;;;;;;1999.90;999.90;;;1.40;99.90;;;;;;5052442;28;20099;-80
2022/12/18 07:26:04;;;;;;;1999.90;999.90;;;1.40;99.90;;;;;;5051907;28;20028;-80
2022/12/18 07:28:30;;;;;;;1999.90;999.90;;;1.40;99.90;;;;;;5052346;28;20029;-80
2022/12/18 07:30:56;;;;;;;1999.90;999.90;;;1.40;99.90;;;;;;5052416;28;20032;-80
2022/12/18 07:33:21;;;;;;;1999.90;999.90;;;1.50;99.90;;;;;;5050999;28;20029;-80
2022/12/18 07:35:47;;;;;;;1999.90;999.90;;;1.50;99.90;;;;;;5051693;28;20138;-79
2022/12/18 07:38:13;;;;;;;1999.90;999.90;;;1.50;99.90;;;;;;5052246;28;20047;-80
2022/12/18 07:40:38;;;;;;;1999.90;999.90;;;1.60;99.90;;;;;;5050541;28;20476;-80
2022/12/18 07:43:04;;;;;;;1999.90;999.90;;;1.60;99.90;;;;;;5052429;28;20488;-80
2022/12/18 07:45:29;;;;;;;1999.90;999.90;;;1.60;99.90;;;;;;5050775;28;20071;-79
2022/12/18 07:47:55;;;;;;;1999.90;999.90;;;1.70;99.90;;;;;;5051998;28;20116;-80
2022/12/18 07:50:20;;;;;;;1999.90;999.90;;;1.70;99.90;;;;;;5052118;28;20399;-81
2022/12/18 07:52:46;;;;;;;1999.90;999.90;;;1.70;99.90;;;;;;5051356;28;20036;-80
2022/12/18 07:55:12;;;;;;;1999.90;999.90;;;1.70;99.90;;;;;;5037897;28;20022;-80
2022/12/18 07:57:37;;;;;;;1999.90;999.90;;;1.80;99.90;;;;;;5064031;28;20025;-81
2022/12/18 08:00:04;;;;;;;1999.90;999.90;;;1.70;99.90;;;;;;5032044;28;20029;-81
2022/12/18 08:02:31;;;;;;;1999.90;999.90;;;1.80;99.90;;;;;;5032070;28;20091;-81
2022/12/18 08:04:57;;;;;;;1999.90;999.90;;;1.90;99.90;;;;;;5031960;28;20054;-80
2022/12/18 08:07:22;;;;;;;1999.90;999.90;;;1.90;99.90;;;;;;5032107;28;20041;-81
2022/12/18 08:09:48;;;;;;;1999.90;999.90;;;2.00;99.90;;;;;;5032420;28;20022;-76
2022/12/18 08:12:13;;;;;;;1999.90;999.90;;;2.00;99.90;;;;;;5031556;28;20065;-81
2022/12/18 08:14:39;;;;;;;1999.90;999.90;;;2.10;99.90;;;;;;5039290;28;20019;-81
2022/12/18 08:17:05;;;;;;;1999.90;999.90;;;2.30;99.90;;;;;;5052295;28;20099;-80
2022/12/18 08:19:30;;;;;;;1999.90;999.90;;;2.40;99.90;;;;;;5051942;28;20018;-82
2022/12/18 08:21:56;;;;;;;1999.90;999.90;;;2.40;99.90;;;;;;5051562;28;20036;-80
2022/12/18 08:24:22;;;;;;;1999.90;999.90;;;2.40;99.90;;;;;;5051552;28;20028;-81
2022/12/18 08:26:47;;;;;;;1999.90;999.90;;;2.40;99.90;;;;;;5051382;28;20025;-76
2022/12/18 08:29:13;;;;;;;1999.90;999.90;;;2.50;99.90;;;;;;5051837;28;20032;-80
2022/12/18 08:31:39;;;;;;;1999.90;999.90;;;2.50;99.90;;;;;;5051670;28;20017;-80
2022/12/18 08:34:04;;;;;;;1999.90;999.90;;;2.60;99.90;;;;;;5050808;28;20381;-81
2022/12/18 08:36:30;;;;;;;1999.90;999.90;;;2.60;99.90;;;;;;5051480;28;20048;-83
2022/12/18 08:38:56;;;;;;;1999.90;999.90;;;2.70;99.90;;;;;;5051554;28;20060;-81
2022/12/18 08:41:22;;;;;;;1999.90;999.90;;;2.80;99.90;;;;;;5051500;28;20028;-83
2022/12/18 08:46:41;;;;;;;1999.90;999.90;;;2.80;99.90;;;;;;5055102;28;20047;-80
2022/12/18 08:49:08;;;;;;;1999.90;999.90;;;2.90;99.90;;;;;;5055533;28;20033;-76
2022/12/18 08:51:34;;;;;;;1999.90;999.90;;;2.90;99.90;;;;;;5055440;28;20431;-80
2022/12/18 08:54:00;;;;;;;1999.90;999.90;;;2.90;99.90;;;;;;5050132;28;20100;-81
2022/12/18 08:56:26;;;;;;;1999.90;999.90;;;2.90;99.90;;;;;;5035202;28;20018;-80
2022/12/18 08:58:53;;;;;;;1999.90;999.90;;;2.90;99.90;;;;;;5035281;28;20426;-81
2022/12/18 09:01:19;;;;;;;1999.90;999.90;;;2.80;99.90;;;;;;5035240;28;20100;-81
2022/12/18 09:03:49;;;;;;;1999.90;999.90;;;2.80;99.90;;;;;;5066886;28;20068;-81
2022/12/18 09:06:17;;;;;;;1999.90;999.90;;;2.80;99.90;;;;;;5034981;28;20061;-82
2022/12/18 09:08:44;;;;;;;1999.90;999.90;;;2.90;99.90;;;;;;5066859;28;20064;-81
2022/12/18 09:11:14;;;;;;;1999.90;999.90;;;2.80;99.90;;;;;;5035163;28;20049;-81
2022/12/18 09:13:39;;;;;;;1999.90;999.90;;;2.90;99.90;;;;;;5034827;28;20017;-81
2022/12/18 09:16:05;;;;;;;1999.90;999.90;;;2.90;99.90;;;;;;5053846;28;20033;-80
2022/12/18 09:18:31;;;;;;;1999.90;999.90;;;3.00;99.90;;;;;;5054835;28;20017;-81
2022/12/18 09:20:56;;;;;;;1999.90;999.90;;;3.10;99.90;;;;;;5054530;28;20029;-82
2022/12/18 09:23:22;;;;;;;1999.90;999.90;;;3.10;99.90;;;;;;5054693;28;20242;-81
2022/12/18 09:25:48;;;;;;;1999.90;999.90;;;3.10;99.90;;;;;;5054184;28;20033;-81
2022/12/18 09:28:18;;;;;;;1999.90;999.90;;;3.20;99.90;;;;;;5054630;28;20087;-82
2022/12/18 09:30:46;;;;;;;1999.90;999.90;;;3.30;99.90;;;;;;5054298;28;20025;-80
2022/12/18 09:33:13;;;;;;;1999.90;999.90;;;3.40;99.90;;;;;;5054761;28;20075;-81
2022/12/18 09:35:40;;;;;;;1999.90;999.90;;;3.40;99.90;;;;;;5052953;28;20036;-81
2022/12/18 09:38:08;;;;;;;1999.90;999.90;;;3.50;99.90;;;;;;5054209;28;20021;-83
2022/12/18 09:40:43;;;;;;;1999.90;999.90;;;3.50;99.90;;;;;;5052858;28;20036;-80
2022/12/18 09:43:19;;;;;;;1999.90;999.90;;;3.60;99.90;;;;;;5054383;28;20024;-81
2022/12/18 09:45:50;;;;;;;1999.90;999.90;;;3.60;99.90;;;;;;5054299;28;20492;-81
2022/12/18 09:48:25;;;;;;;1999.90;999.90;;;3.60;99.90;;;;;;5052943;28;20462;-81
2022/12/18 09:50:53;;;;;;;1999.90;999.90;;;3.60;99.90;;;;;;5054203;28;20103;-81
2022/12/18 09:53:27;;;;;;;1999.90;999.90;;;3.70;99.90;;;;;;5053082;28;20021;-81
2022/12/18 09:55:55;;;;;;;1999.90;999.90;;;3.70;99.90;;;;;;5032381;28;20076;-80
2022/12/18 09:58:40;;;;;;;1999.90;999.90;;;3.70;99.90;;;;;;5034507;28;20530;-82
2022/12/18 10:01:18;;;;;;;1999.90;999.90;;;3.80;99.90;;;;;;5034317;28;20030;-81
2022/12/18 10:03:43;;;;;;;1999.90;999.90;;;3.80;99.90;;;;;;5034053;28;20504;-80
2022/12/18 10:06:18;;;;;;;1999.90;999.90;;;3.90;99.90;;;;;;5033993;28;20037;-76
2022/12/18 10:08:44;;;;;;;1999.90;999.90;;;4.00;99.90;;;;;;5033734;28;20055;-80
2022/12/18 10:11:24;;;;;;;1999.90;999.90;;;4.10;99.90;;;;;;5033998;28;20022;-80
2022/12/18 10:14:14;;;;;;;1999.90;999.90;;;4.10;99.90;;;;;;5034077;28;20021;-80
2022/12/18 10:16:55;;;;;;;1999.90;999.90;;;4.20;99.90;;;;;;5051621;28;20049;-81
2022/12/18 10:19:38;;;;;;;1999.90;999.90;;;4.20;99.90;;;;;;5053946;28;20099;-81
2022/12/18 10:22:10;;;;;;;1999.90;999.90;;;4.20;99.90;;;;;;5053469;28;20507;-81
2022/12/18 10:24:44;;;;;;;1999.90;999.90;;;4.20;99.90;;;;;;5053279;28;20047;-80
2022/12/18 10:27:22;;;;;;;1999.90;999.90;;;4.30;99.90;;;;;;5052171;28;20083;-82
2022/12/18 10:29:47;;;;;;;1999.90;999.90;;;4.30;99.90;;;;;;5053344;28;20079;-81
2022/12/18 10:32:25;;;;;;;1999.90;999.90;;;4.30;99.90;;;;;;5053424;28;20033;-81
2022/12/18 10:34:54;;;;;;;1999.90;999.90;;;4.30;99.90;;;;;;5053108;28;20025;-82
2022/12/18 10:37:23;;;;;;;1999.90;999.90;;;4.30;99.90;;;;;;5053519;28;20009;-81
2022/12/18 10:40:12;;;;;;;1999.90;999.90;;;4.30;99.90;;;;;;5053263;28;20539;-82
2022/12/18 10:42:38;;;;;;;1999.90;999.90;;;4.30;99.90;;;;;;5051329;28;20017;-81
2022/12/18 10:45:13;;;;;;;1999.90;999.90;;;4.30;99.90;;;;;;5053118;28;20574;-82
2022/12/18 10:47:48;;;;;;;1999.90;999.90;;;4.30;99.90;;;;;;5051826;28;20112;-83
2022/12/18 10:50:34;;;;;;;1999.90;999.90;;;4.30;99.90;;;;;;5052962;28;20025;-81
2022/12/18 10:53:03;;;;;;;1999.90;999.90;;;4.30;99.90;;;;;;5053217;28;20434;-82
2022/12/18 10:55:35;;;;;;;1999.90;999.90;;;4.40;99.90;;;;;;5047151;28;20448;-77
2022/12/18 10:58:22;;;;;;;1999.90;999.90;;;4.40;99.90;;;;;;5033084;28;20035;-83
2022/12/18 11:01:06;;;;;;;1999.90;999.90;;;4.40;99.90;;;;;;5032922;28;20255;-83
2022/12/18 11:03:35;;;;;;;1999.90;999.90;;;4.40;99.90;;;;;;5032983;28;20103;-81
2022/12/18 11:06:09;;;;;;;1999.90;999.90;;;4.50;99.90;;;;;;5033071;28;20045;-81
2022/12/18 11:08:35;;;;;;;1999.90;999.90;;;4.50;99.90;;;;;;5032141;28;20021;-82
2022/12/18 11:11:01;;;;;;;1999.90;999.90;;;4.50;99.90;;;;;;5032685;28;20599;-81
2022/12/18 11:13:29;;;;;;;1999.90;999.90;;;4.60;99.90;;;;;;5032828;28;20025;-82
2022/12/18 11:15:55;;;;;;;1999.90;999.90;;;4.70;99.90;;;;;;5050324;28;20087;-82
2022/12/18 11:18:34;;;;;;;1999.90;999.90;;;4.80;99.90;;;;;;5052233;28;20021;-84
2022/12/18 11:21:07;;;;;;;1999.90;999.90;;;4.80;99.90;;;;;;5052146;28;20388;-83
2022/12/18 11:23:34;;;;;;;1999.90;999.90;;;4.90;99.90;;;;;;5052431;28;20613;-80
2022/12/18 11:26:02;;;;;;;1999.90;999.90;;;4.90;99.90;;;;;;5051872;28;20040;-82
2022/12/18 11:28:51;;;;;;;1999.90;999.90;;;5.00;99.90;;;;;;5052399;28;20480;-82
2022/12/18 11:31:28;;;;;;;1999.90;999.90;;;5.00;99.90;;;;;;5051978;28;20099;-83
2022/12/18 11:34:13;;;;;;;1999.90;999.90;;;5.10;99.90;;;;;;5051164;28;20083;-82
2022/12/18 11:36:47;;;;;;;1999.90;999.90;;;5.10;99.90;;;;;;5052235;28;20095;-81
2022/12/18 11:39:30;;;;;;;1999.90;999.90;;;5.20;99.90;;;;;;5052529;28;20086;-82
2022/12/18 11:42:09;;;;;;;1999.90;999.90;;;5.20;99.90;;;;;;5051862;28;20083;-81
2022/12/18 11:44:54;;;;;;;1999.90;999.90;;;5.20;99.90;;;;;;5051950;28;20395;-83
2022/12/18 11:47:50;;;;;;;1999.90;999.90;;;5.40;99.90;;;;;;5052359;28;20138;-81
2022/12/18 11:50:23;;;;;;;1999.90;999.90;;;5.40;99.90;;;;;;5052020;28;20495;-83
2022/12/18 11:52:49;;;;;;;1999.90;999.90;;;5.50;99.90;;;;;;5052201;28;20036;-76
2022/12/18 11:55:25;;;;;;;1999.90;999.90;;;5.50;99.90;;;;;;5036728;28;20389;-83
2022/12/18 11:58:14;;;;;;;1999.90;999.90;;;5.60;99.90;;;;;;5047252;28;20025;-82
2022/12/18 12:01:30;;;;;;;1999.90;999.90;;;5.60;99.90;;;;;;5031907;28;20076;-81
2022/12/18 12:04:19;;;;;;;1999.90;999.90;;;5.60;99.90;;;;;;5031438;28;20038;-83
2022/12/18 12:07:16;;;;;;;1999.90;999.90;;;5.60;99.90;;;;;;5032009;28;20083;-82
2022/12/18 12:09:59;;;;;;;1999.90;999.90;;;5.60;99.90;;;;;;5032098;28;20029;-80
2022/12/18 12:12:49;;;;;;;1999.90;999.90;;;5.60;99.90;;;;;;5031651;28;20488;-81
2022/12/18 12:15:35;;;;;;;1999.90;999.90;;;5.60;99.90;;;;;;5044544;28;20024;-80
2022/12/18 12:18:19;;;;;;;1999.90;999.90;;;5.70;99.90;;;;;;5051956;28;20029;-81
2022/12/18 12:21:09;;;;;;;1999.90;999.90;;;5.70;99.90;;;;;;5054339;28;20029;-81
2022/12/18 12:23:46;;;;;;;1999.90;999.90;;;5.80;99.90;;;;;;5055706;28;20028;-82
2022/12/18 12:26:41;;;;;;;1999.90;999.90;;;5.80;99.90;;;;;;5055573;28;20036;-79
2022/12/18 12:29:18;;;;;;;1999.90;999.90;;;5.90;99.90;;;;;;5055382;28;20037;-81